createdAt,value
2023-07-24T00:00:41.608Z,56.19
2023-07-24T00:03:09.302Z,56.12
2023-07-24T00:05:37.028Z,56.04
2023-07-24T00:08:05.036Z,56.39
2023-07-24T00:10:32.653Z,57.32
2023-07-24T00:13:00.295Z,57.63
2023-07-24T00:15:27.873Z,57.75
2023-07-24T00:17:55.454Z,57.80
2023-07-24T00:20:25.402Z,57.60
2023-07-24T00:22:53.045Z,57.27
2023-07-24T00:25:20.652Z,57.04
2023-07-24T00:27:48.207Z,57.48
2023-07-24T00:30:15.776Z,57.65
2023-07-24T00:32:45.100Z,57.75
2023-07-24T00:35:12.674Z,57.07
2023-07-24T00:37:40.232Z,57.34
2023-07-24T00:40:09.324Z,56.88
2023-07-24T00:42:36.889Z,57.52
2023-07-24T00:45:05.635Z,57.13
2023-07-24T00:47:33.868Z,57.30
2023-07-24T00:50:01.618Z,57.44
2023-07-24T00:52:29.245Z,57.63
2023-07-24T00:54:56.895Z,57.27
2023-07-24T00:57:25.036Z,57.28
2023-07-24T00:59:53.222Z,57.19
2023-07-24T01:02:21.430Z,57.15
2023-07-24T01:04:49.882Z,56.85
2023-07-24T01:07:17.887Z,57.03
2023-07-24T01:09:45.501Z,56.73
2023-07-24T01:12:28.894Z,56.62
2023-07-24T01:15:04.661Z,56.91
2023-07-24T01:17:33.278Z,56.64
2023-07-24T01:20:05.033Z,56.74
2023-07-24T01:23:20.768Z,56.65
2023-07-24T01:26:00.507Z,56.62
2023-07-24T01:28:28.190Z,56.63
2023-07-24T01:30:57.218Z,56.55
2023-07-24T01:33:25.834Z,56.78
2023-07-24T01:36:01.700Z,57.11
2023-07-24T01:38:31.910Z,56.72
2023-07-24T01:41:01.386Z,56.43
2023-07-24T01:43:31.359Z,56.63
2023-07-24T01:45:59.732Z,56.85
2023-07-24T01:48:27.281Z,56.30
2023-07-24T01:50:55.801Z,56.83
2023-07-24T01:53:23.379Z,56.92
2023-07-24T01:55:50.946Z,57.39
2023-07-24T01:58:18.573Z,57.23
2023-07-24T02:00:46.231Z,57.30
2023-07-24T02:03:13.802Z,57.02
2023-07-24T02:05:41.405Z,56.97
2023-07-24T02:08:09.081Z,57.08
2023-07-24T02:10:39.151Z,57.25
2023-07-24T02:13:08.413Z,57.01
2023-07-24T02:15:37.120Z,56.77
2023-07-24T02:18:05.393Z,56.87
2023-07-24T02:20:34.078Z,57.07
2023-07-24T02:23:01.633Z,57.14
2023-07-24T02:25:29.231Z,56.75
2023-07-24T02:27:56.830Z,56.64
2023-07-24T02:30:25.111Z,56.92
2023-07-24T02:32:52.683Z,56.68
2023-07-24T02:35:20.284Z,56.92
2023-07-24T02:37:47.789Z,56.88
2023-07-24T02:40:15.457Z,57.03
2023-07-24T02:42:42.968Z,57.07
2023-07-24T02:45:12.144Z,57.43
2023-07-24T02:47:39.864Z,57.41
2023-07-24T02:50:08.036Z,57.29
2023-07-24T02:52:35.689Z,57.31
2023-07-24T02:55:03.449Z,57.20
2023-07-24T02:57:31.015Z,57.25
2023-07-24T02:59:58.685Z,57.19
2023-07-24T03:02:26.300Z,57.19
2023-07-24T03:04:53.889Z,56.88
2023-07-24T03:07:21.459Z,56.50
2023-07-24T03:09:49.097Z,56.26
2023-07-24T03:12:17.097Z,56.26
2023-07-24T03:14:44.991Z,56.11
2023-07-24T03:17:12.800Z,56.09
2023-07-24T03:19:41.810Z,56.09
2023-07-24T03:22:09.613Z,55.74
2023-07-24T03:24:37.169Z,55.92
2023-07-24T03:27:05.035Z,55.71
2023-07-24T03:29:32.777Z,55.33
2023-07-24T03:32:00.853Z,55.39
2023-07-24T03:34:28.619Z,55.46
2023-07-24T03:36:56.208Z,55.09
2023-07-24T03:39:23.780Z,54.65
2023-07-24T03:41:51.317Z,54.46
2023-07-24T03:44:18.864Z,54.43
2023-07-24T03:46:47.097Z,54.13
2023-07-24T03:49:14.758Z,53.77
2023-07-24T03:51:42.412Z,53.75
2023-07-24T03:54:10.022Z,53.52
2023-07-24T03:56:37.572Z,53.35
2023-07-24T03:59:06.657Z,53.68
2023-07-24T04:01:34.278Z,53.34
2023-07-24T04:04:02.461Z,53.37
2023-07-24T04:06:30.376Z,53.36
2023-07-24T04:08:59.047Z,53.19
2023-07-24T04:11:26.608Z,52.95
2023-07-24T04:13:54.161Z,52.61
2023-07-24T04:16:21.844Z,52.73
2023-07-24T04:18:49.470Z,52.46
2023-07-24T04:21:17.051Z,52.72
2023-07-24T04:23:44.641Z,52.63
2023-07-24T04:26:12.193Z,52.39
2023-07-24T04:28:39.748Z,52.00
2023-07-24T04:31:07.342Z,51.94
2023-07-24T04:33:34.904Z,52.19
2023-07-24T04:36:02.541Z,52.05
2023-07-24T04:38:30.112Z,51.58
2023-07-24T04:40:57.709Z,51.78
2023-07-24T04:43:25.325Z,51.70
2023-07-24T04:45:52.923Z,51.32
2023-07-24T04:48:20.877Z,51.74
2023-07-24T04:50:54.502Z,51.25
2023-07-24T04:53:22.346Z,51.39
2023-07-24T04:55:50.184Z,51.14
2023-07-24T04:58:17.868Z,51.17
2023-07-24T05:00:45.480Z,50.98
2023-07-24T05:03:13.290Z,50.47
2023-07-24T05:05:44.467Z,51.41
2023-07-24T05:08:13.339Z,51.73
2023-07-24T05:10:40.968Z,51.31
2023-07-24T05:13:09.054Z,51.77
2023-07-24T05:15:37.719Z,51.54
2023-07-24T05:18:05.289Z,51.76
2023-07-24T05:20:32.866Z,52.12
2023-07-24T05:23:00.465Z,51.92
2023-07-24T05:25:28.044Z,51.47
2023-07-24T05:27:55.626Z,50.97
2023-07-24T05:30:23.218Z,50.80
2023-07-24T05:32:50.980Z,50.22
2023-07-24T05:35:18.604Z,50.13
2023-07-24T05:37:46.165Z,49.86
2023-07-24T05:40:13.881Z,49.96
2023-07-24T05:42:44.354Z,49.83
2023-07-24T05:45:12.359Z,49.45
2023-07-24T05:47:39.970Z,49.63
2023-07-24T05:50:08.031Z,49.11
2023-07-24T05:52:35.577Z,49.22
2023-07-24T05:55:04.156Z,49.53
2023-07-24T05:57:31.752Z,49.65
2023-07-24T05:59:59.282Z,49.49
2023-07-24T06:02:26.832Z,49.40
2023-07-24T06:04:54.465Z,49.56
2023-07-24T06:07:22.087Z,49.08
2023-07-24T06:09:49.804Z,49.25
2023-07-24T06:12:17.538Z,49.20
2023-07-24T06:14:45.147Z,48.99
2023-07-24T06:17:12.713Z,48.67
2023-07-24T06:19:40.302Z,48.71
2023-07-24T06:22:08.467Z,48.89
2023-07-24T06:24:36.157Z,48.79
2023-07-24T06:27:04.071Z,48.62
2023-07-24T06:29:31.806Z,48.92
2023-07-24T06:31:59.470Z,48.66
2023-07-24T06:34:27.048Z,48.96
2023-07-24T06:36:55.246Z,49.08
2023-07-24T06:39:24.776Z,48.91
2023-07-24T06:41:56.217Z,48.55
2023-07-24T06:44:23.847Z,48.31
2023-07-24T06:46:51.429Z,48.32
2023-07-24T06:49:18.991Z,48.16
2023-07-24T06:51:46.582Z,48.08
2023-07-24T06:54:14.134Z,47.76
2023-07-24T06:56:41.676Z,48.04
2023-07-24T06:59:09.221Z,48.15
2023-07-24T07:01:36.892Z,48.07
2023-07-24T07:04:04.668Z,48.29
2023-07-24T07:06:32.264Z,47.80
2023-07-24T07:08:59.838Z,47.73
2023-07-24T07:11:27.384Z,47.48
2023-07-24T07:13:54.953Z,47.16
2023-07-24T07:16:22.588Z,47.24
2023-07-24T07:18:50.323Z,47.25
2023-07-24T07:21:17.966Z,47.70
2023-07-24T07:23:47.414Z,47.72
2023-07-24T07:26:15.190Z,47.70
2023-07-24T07:28:42.835Z,47.37
2023-07-24T07:31:10.448Z,47.27
2023-07-24T07:33:38.113Z,47.54
2023-07-24T07:36:06.984Z,47.48
2023-07-24T07:38:34.560Z,47.77
2023-07-24T07:41:06.671Z,47.56
2023-07-24T07:43:34.322Z,47.48
2023-07-24T07:46:01.946Z,47.73
2023-07-24T07:48:29.584Z,47.89
2023-07-24T07:50:57.158Z,47.68
2023-07-24T07:53:24.726Z,48.55
2023-07-24T07:56:01.013Z,49.15
2023-07-24T07:58:28.866Z,49.49
2023-07-24T08:00:56.662Z,49.91
2023-07-24T08:03:24.383Z,50.21
2023-07-24T08:05:52.048Z,50.15
2023-07-24T08:08:19.590Z,50.10
2023-07-24T08:10:47.182Z,50.22
2023-07-24T08:13:14.718Z,50.71
2023-07-24T08:15:42.253Z,50.19
2023-07-24T08:18:09.910Z,50.72
2023-07-24T08:20:38.527Z,51.25
2023-07-24T08:23:06.074Z,51.71
2023-07-24T08:25:33.645Z,52.32
2023-07-24T08:28:05.864Z,52.97
2023-07-24T08:30:35.650Z,53.36
2023-07-24T08:33:04.209Z,54.24
2023-07-24T08:35:31.899Z,54.41
2023-07-24T08:37:59.489Z,54.64
2023-07-24T08:40:27.096Z,55.16
2023-07-24T08:42:55.777Z,55.47
2023-07-24T08:45:25.602Z,55.35
2023-07-24T08:47:53.579Z,54.68
2023-07-24T08:50:22.761Z,55.11
2023-07-24T08:52:50.373Z,55.41
2023-07-24T08:55:18.022Z,55.68
2023-07-24T08:57:45.610Z,55.62
2023-07-24T09:00:13.842Z,55.21
2023-07-24T09:02:41.521Z,54.90
2023-07-24T09:05:09.965Z,55.07
2023-07-24T09:07:38.709Z,55.61
2023-07-24T09:10:08.342Z,55.41
2023-07-24T09:12:39.906Z,55.72
2023-07-24T09:15:08.803Z,55.53
2023-07-24T09:17:36.490Z,55.35
2023-07-24T09:20:05.005Z,55.43
2023-07-24T09:22:34.425Z,55.20
2023-07-24T09:25:04.463Z,54.77
2023-07-24T09:27:33.145Z,54.36
2023-07-24T09:30:02.079Z,54.71
2023-07-24T09:32:30.202Z,54.74
2023-07-24T09:34:57.804Z,55.03
2023-07-24T09:37:36.448Z,54.84
2023-07-24T09:40:07.555Z,55.00
2023-07-24T09:42:48.546Z,54.52
2023-07-24T09:45:23.413Z,54.44
2023-07-24T09:47:56.712Z,54.68
2023-07-24T09:50:26.859Z,54.69
2023-07-24T09:52:55.893Z,54.71
2023-07-24T09:55:31.248Z,54.54
2023-07-24T09:58:01.488Z,54.01
2023-07-24T10:00:29.934Z,54.16
2023-07-24T10:02:57.731Z,54.19
2023-07-24T10:05:25.734Z,54.40
2023-07-24T10:07:53.917Z,54.60
2023-07-24T10:10:22.518Z,54.87
2023-07-24T10:12:50.528Z,55.24
2023-07-24T10:15:19.137Z,55.80
2023-07-24T10:17:48.382Z,56.02
2023-07-24T10:20:18.922Z,56.17
2023-07-24T10:22:46.792Z,56.25
2023-07-24T10:25:14.439Z,56.45
2023-07-24T10:27:47.892Z,57.43
2023-07-24T10:30:32.606Z,57.16
2023-07-24T10:33:20.026Z,57.53
2023-07-24T10:36:10.775Z,57.73
2023-07-24T10:38:41.698Z,58.11
2023-07-24T10:41:11.493Z,58.51
2023-07-24T10:43:48.686Z,58.59
2023-07-24T10:46:20.302Z,58.78
2023-07-24T10:48:53.214Z,59.06
2023-07-24T10:51:22.578Z,59.04
2023-07-24T10:53:50.919Z,59.56
2023-07-24T10:56:18.605Z,59.98
2023-07-24T10:58:46.201Z,60.17
2023-07-24T11:01:15.240Z,60.28
2023-07-24T11:03:43.885Z,60.36
2023-07-24T11:06:20.900Z,60.68
2023-07-24T11:09:00.363Z,60.45
2023-07-24T11:11:37.133Z,60.71
2023-07-24T11:14:05.638Z,60.60
2023-07-24T11:16:34.438Z,60.69
2023-07-24T11:19:02.518Z,60.93
2023-07-24T11:21:30.670Z,61.25
2023-07-24T11:23:58.918Z,61.08
2023-07-24T11:26:28.146Z,60.84
2023-07-24T11:28:56.442Z,60.71
2023-07-24T11:31:24.127Z,60.99
2023-07-24T11:33:53.953Z,60.59
2023-07-24T11:36:22.772Z,60.19
2023-07-24T11:38:50.418Z,60.37
2023-07-24T11:41:18.983Z,60.46
2023-07-24T11:43:51.625Z,60.48
2023-07-24T11:46:32.855Z,60.41
2023-07-24T11:49:00.699Z,60.38
2023-07-24T11:51:30.101Z,60.28
2023-07-24T11:54:09.042Z,59.86
2023-07-24T11:56:36.938Z,59.62
2023-07-24T11:59:23.073Z,58.88
2023-07-24T12:01:50.625Z,58.64
2023-07-24T12:04:18.583Z,58.12
2023-07-24T12:06:46.279Z,58.49
2023-07-24T12:09:14.251Z,58.15
2023-07-24T12:11:46.674Z,58.35
2023-07-24T12:14:15.925Z,58.74
2023-07-24T12:16:43.885Z,58.53
2023-07-24T12:19:11.525Z,58.67
2023-07-24T12:21:39.368Z,59.08
2023-07-24T12:24:06.967Z,59.29
2023-07-24T12:26:34.731Z,59.44
2023-07-24T12:29:02.325Z,59.32
2023-07-24T12:31:30.653Z,59.78
2023-07-24T12:33:58.479Z,59.91
2023-07-24T12:36:26.065Z,59.69
2023-07-24T12:38:53.658Z,59.53
2023-07-24T12:41:21.190Z,60.50
2023-07-24T12:43:48.823Z,60.25
2023-07-24T12:46:16.487Z,60.23
2023-07-24T12:48:44.088Z,60.39
2023-07-24T12:51:11.658Z,60.35
2023-07-24T12:53:47.525Z,60.45
2023-07-24T12:56:21.130Z,61.23
2023-07-24T12:58:48.692Z,60.98
2023-07-24T13:01:16.342Z,61.69
2023-07-24T13:03:44.007Z,61.61
2023-07-24T13:06:11.620Z,61.69
2023-07-24T13:08:39.173Z,61.83
2023-07-24T13:11:06.827Z,61.96
2023-07-24T13:13:34.866Z,62.03
2023-07-24T13:16:02.825Z,62.75
2023-07-24T13:18:30.928Z,62.72
2023-07-24T13:20:58.598Z,62.47
2023-07-24T13:23:26.173Z,62.49
2023-07-24T13:25:54.461Z,62.52
2023-07-24T13:28:22.096Z,62.36
2023-07-24T13:30:49.758Z,62.73
2023-07-24T13:33:17.387Z,62.19
2023-07-24T13:35:45.410Z,62.51
2023-07-24T13:38:13.220Z,62.63
2023-07-24T13:40:41.076Z,62.47
2023-07-24T13:43:08.662Z,62.30
2023-07-24T13:45:36.318Z,62.63
2023-07-24T13:48:04.210Z,62.25
2023-07-24T13:50:31.821Z,61.86
2023-07-24T13:52:59.378Z,61.67
2023-07-24T13:55:27.013Z,61.85
2023-07-24T13:57:54.612Z,61.64
2023-07-24T14:00:22.320Z,60.96
2023-07-24T14:02:50.044Z,59.72
2023-07-24T14:05:17.883Z,59.64
2023-07-24T14:07:45.543Z,58.57
2023-07-24T14:10:13.205Z,56.71
2023-07-24T14:12:40.818Z,56.14
2023-07-24T14:15:09.111Z,55.42
2023-07-24T14:17:36.770Z,53.39
2023-07-24T14:20:06.287Z,52.36
2023-07-24T14:22:33.913Z,52.94
2023-07-24T14:25:01.553Z,52.01
2023-07-24T14:27:29.198Z,51.66
2023-07-24T14:29:56.850Z,51.24
2023-07-24T14:32:24.526Z,51.17
2023-07-24T14:34:53.730Z,50.38
2023-07-24T14:37:22.028Z,50.22
2023-07-24T14:39:51.138Z,49.82
2023-07-24T14:42:19.192Z,49.62
2023-07-24T14:44:46.839Z,48.77
2023-07-24T14:47:14.717Z,48.25
2023-07-24T14:49:42.325Z,47.35
2023-07-24T14:52:10.182Z,46.48
2023-07-24T14:54:39.732Z,46.79
2023-07-24T14:57:19.123Z,47.10
2023-07-24T14:59:52.250Z,47.42
2023-07-24T15:02:20.025Z,46.24
2023-07-24T15:04:47.956Z,46.71
2023-07-24T15:07:15.754Z,46.14
2023-07-24T15:09:44.409Z,46.48
2023-07-24T15:12:12.128Z,46.48
2023-07-24T15:14:39.803Z,46.51
2023-07-24T15:17:08.121Z,46.45
2023-07-24T15:19:35.760Z,45.95
2023-07-24T15:22:03.468Z,45.90
2023-07-24T15:24:31.080Z,45.80
2023-07-24T15:26:58.723Z,46.10
2023-07-24T15:29:26.376Z,46.20
2023-07-24T15:31:53.999Z,45.80
2023-07-24T15:34:21.590Z,45.80
2023-07-24T15:36:49.180Z,45.89
2023-07-24T15:39:16.741Z,46.25
2023-07-24T15:41:44.304Z,46.25
2023-07-24T15:44:11.982Z,46.04
2023-07-24T15:46:39.698Z,46.22
2023-07-24T15:49:07.364Z,46.23
2023-07-24T15:51:35.237Z,46.16
2023-07-24T15:54:05.753Z,46.66
2023-07-24T15:56:33.429Z,46.20
2023-07-24T15:59:01.144Z,46.42
2023-07-24T16:01:29.545Z,47.92
2023-07-24T16:03:57.547Z,48.95
2023-07-24T16:06:25.233Z,49.56
2023-07-24T16:08:52.867Z,49.10
2023-07-24T16:11:20.675Z,51.25
2023-07-24T16:13:48.292Z,52.49
2023-07-24T16:16:16.063Z,54.05
2023-07-24T16:18:44.172Z,55.12
2023-07-24T16:21:11.789Z,56.77
2023-07-24T16:23:39.520Z,57.20
2023-07-24T16:26:07.156Z,58.25
2023-07-24T16:28:34.724Z,58.99
2023-07-24T16:31:02.385Z,59.88
2023-07-24T16:33:31.296Z,61.42
2023-07-24T16:35:59.178Z,61.84
2023-07-24T16:38:26.740Z,62.06
2023-07-24T16:40:55.772Z,62.51
2023-07-24T16:43:23.962Z,63.23
2023-07-24T16:48:22.963Z,63.64
2023-07-24T16:50:50.697Z,63.71
2023-07-24T16:53:18.292Z,64.89
2023-07-24T16:55:45.857Z,65.64
2023-07-24T16:58:13.431Z,65.86
2023-07-24T17:00:41.072Z,66.42
2023-07-24T17:03:08.758Z,66.25
2023-07-24T17:05:36.869Z,66.22
2023-07-24T17:08:04.905Z,65.82
2023-07-24T17:10:44.888Z,64.81
2023-07-24T17:13:14.418Z,64.88
2023-07-24T17:15:44.084Z,65.25
2023-07-24T17:18:11.699Z,65.07
2023-07-24T17:20:39.307Z,64.07
2023-07-24T17:23:07.392Z,64.07
2023-07-24T17:25:36.946Z,63.44
2023-07-24T17:28:04.936Z,63.57
2023-07-24T17:30:32.743Z,62.88
2023-07-24T17:33:00.598Z,62.51
2023-07-24T17:35:28.611Z,62.93
2023-07-24T17:37:56.179Z,62.36
2023-07-24T17:40:23.944Z,62.00
2023-07-24T17:42:52.520Z,61.75
2023-07-24T17:45:20.076Z,61.23
2023-07-24T17:47:47.662Z,60.67
2023-07-24T17:50:15.341Z,61.02
2023-07-24T17:52:42.915Z,61.02
2023-07-24T17:55:10.549Z,61.00
2023-07-24T17:57:38.186Z,59.88
2023-07-24T18:00:06.772Z,60.16
2023-07-24T18:03:11.533Z,60.27
2023-07-24T18:05:39.429Z,59.63
2023-07-24T18:08:07.076Z,59.55
2023-07-24T18:10:34.721Z,59.39
2023-07-24T18:13:03.102Z,59.68
2023-07-24T18:15:30.687Z,59.83
2023-07-24T18:17:58.338Z,59.48
2023-07-24T18:20:25.931Z,59.77
2023-07-24T18:22:53.947Z,59.54
2023-07-24T18:25:21.614Z,59.51
2023-07-24T18:27:49.166Z,59.14
2023-07-24T18:30:16.997Z,59.16
2023-07-24T18:32:44.556Z,59.29
2023-07-24T18:35:13.957Z,59.07
2023-07-24T18:37:41.516Z,59.02
2023-07-24T18:40:09.808Z,58.65
2023-07-24T18:42:37.357Z,59.07
2023-07-24T18:45:05.885Z,58.80
2023-07-24T18:47:35.161Z,58.57
2023-07-24T18:50:03.440Z,58.95
2023-07-24T18:52:30.980Z,59.11
2023-07-24T18:55:00.341Z,59.15
2023-07-24T18:57:27.987Z,59.10
2023-07-24T18:59:55.606Z,59.01
2023-07-24T19:02:23.319Z,59.33
2023-07-24T19:04:51.159Z,59.27
2023-07-24T19:07:18.831Z,59.30
2023-07-24T19:09:46.379Z,59.30
2023-07-24T19:12:14.072Z,59.69
2023-07-24T19:14:41.742Z,59.19
2023-07-24T19:17:09.576Z,59.55
2023-07-24T19:19:38.964Z,59.55
2023-07-24T19:22:06.934Z,59.14
2023-07-24T19:24:34.584Z,59.02
2023-07-24T19:27:02.401Z,59.31
2023-07-24T19:29:29.976Z,58.95
2023-07-24T19:31:57.621Z,59.13
2023-07-24T19:34:25.203Z,59.10
2023-07-24T19:36:52.938Z,58.90
2023-07-24T19:39:20.546Z,58.94
2023-07-24T19:41:48.105Z,59.17
2023-07-24T19:44:15.686Z,59.22
2023-07-24T19:46:43.287Z,59.02
2023-07-24T19:49:10.877Z,58.80
2023-07-24T19:51:38.444Z,59.05
2023-07-24T19:54:06.083Z,59.28
2023-07-24T19:56:33.735Z,58.97
2023-07-24T19:59:01.275Z,59.33
2023-07-24T20:01:29.156Z,59.34
2023-07-24T20:03:57.004Z,59.36
2023-07-24T20:06:26.277Z,59.06
2023-07-24T20:08:53.849Z,58.92
2023-07-24T20:11:21.824Z,58.90
2023-07-24T20:13:49.540Z,58.94
2023-07-24T20:16:20.146Z,59.18
2023-07-24T20:18:48.008Z,59.00
2023-07-24T20:21:16.414Z,59.12
2023-07-24T20:23:44.119Z,59.30
2023-07-24T20:26:11.768Z,59.24
2023-07-24T20:28:39.700Z,59.38
2023-07-24T20:31:07.359Z,58.98
2023-07-24T20:33:34.980Z,58.95
2023-07-24T20:36:07.898Z,59.02
2023-07-24T20:38:37.677Z,58.71
2023-07-24T20:41:05.605Z,59.03
2023-07-24T20:43:33.225Z,58.91
2023-07-24T20:46:12.861Z,58.90
2023-07-24T20:48:41.615Z,58.58
2023-07-24T20:51:20.016Z,58.64
2023-07-24T20:53:48.923Z,58.66
2023-07-24T20:56:16.580Z,58.75
2023-07-24T20:58:45.126Z,58.97
2023-07-24T21:01:12.714Z,58.95
2023-07-24T21:03:40.405Z,58.86
2023-07-24T21:06:07.970Z,59.21
2023-07-24T21:08:35.536Z,58.90
2023-07-24T21:11:03.185Z,58.90
2023-07-24T21:13:30.760Z,59.25
2023-07-24T21:15:59.136Z,59.09
2023-07-24T21:18:27.433Z,59.17
2023-07-24T21:20:55.084Z,59.14
2023-07-24T21:23:22.683Z,58.96
2023-07-24T21:25:55.364Z,59.19
2023-07-24T21:28:24.361Z,59.45
2023-07-24T21:30:52.447Z,59.21
2023-07-24T21:33:20.262Z,59.46
2023-07-24T21:36:00.525Z,59.37
2023-07-24T21:38:28.207Z,59.26
2023-07-24T21:40:55.871Z,59.38
2023-07-24T21:43:24.595Z,59.49
2023-07-24T21:45:54.825Z,59.39
2023-07-24T21:48:22.563Z,59.27
2023-07-24T21:50:54.152Z,59.33
2023-07-24T21:53:22.660Z,59.32
2023-07-24T21:55:50.458Z,59.27
2023-07-24T21:58:18.152Z,59.36
2023-07-24T22:00:45.925Z,59.51
2023-07-24T22:03:13.687Z,59.23
2023-07-24T22:05:41.407Z,59.50
2023-07-24T22:08:09.506Z,59.63
2023-07-24T22:10:37.096Z,59.56
2023-07-24T22:13:04.694Z,59.72
2023-07-24T22:15:32.472Z,59.98
2023-07-24T22:18:00.071Z,59.79
2023-07-24T22:20:39.131Z,59.84
2023-07-24T22:23:09.635Z,59.80
2023-07-24T22:25:37.249Z,59.78
2023-07-24T22:28:05.083Z,59.79
2023-07-24T22:30:32.651Z,59.72
2023-07-24T22:33:00.326Z,59.79
2023-07-24T22:35:28.144Z,59.72
2023-07-24T22:37:55.682Z,59.78
2023-07-24T22:40:23.229Z,59.62
2023-07-24T22:42:50.790Z,59.61
2023-07-24T22:45:18.431Z,59.63
2023-07-24T22:47:46.650Z,59.81
2023-07-24T22:50:15.327Z,59.81
2023-07-24T22:52:43.905Z,59.80
2023-07-24T22:55:11.653Z,60.02
2023-07-24T22:57:39.221Z,60.23
2023-07-24T23:00:07.527Z,60.54
2023-07-24T23:02:35.427Z,60.65
2023-07-24T23:05:03.030Z,61.03
2023-07-24T23:07:30.572Z,61.35
2023-07-24T23:09:58.189Z,61.34
2023-07-24T23:12:25.795Z,61.33
2023-07-24T23:14:53.465Z,61.64
2023-07-24T23:17:21.116Z,61.66
2023-07-24T23:19:48.749Z,61.83
2023-07-24T23:22:16.314Z,62.03
2023-07-24T23:24:43.881Z,62.14
2023-07-24T23:27:11.533Z,62.01
2023-07-24T23:29:39.131Z,61.86
2023-07-24T23:32:07.489Z,62.10
2023-07-24T23:34:35.512Z,61.97
2023-07-24T23:37:03.102Z,62.05
2023-07-24T23:39:30.708Z,62.03
2023-07-24T23:41:58.270Z,62.13
2023-07-24T23:44:25.846Z,62.21
2023-07-24T23:46:53.410Z,62.22
2023-07-24T23:49:21.004Z,62.30
2023-07-24T23:51:48.566Z,62.42
2023-07-24T23:54:16.312Z,62.60
2023-07-24T23:56:43.859Z,62.52
2023-07-24T23:59:11.430Z,62.53
